Details for Delta Airlines at KDTW




Go Back


Latest METAR
Local Time

KDTW 181253Z 00000KT 7SM FEW140 FEW250 23/18 A2993 RMK AO2 SLP131 T02280183 $
18/09/2018, 09:17:42

Description
Results
Delta Airlines Logo
Number of Pilots based at KDTW
0 Pilots Based here
Number of Delta Airlines Flights Departed from KDTW
3 Flights Departed
Number of Delta Airlines Flights Arrived at KDTW
6 Flights Arrived
Number of Delta Airlines Schedules Departing from KDTW
493 Schedules
Number of Delta Airlines Schedules Arriving at KDTW
514 Schedules
Number of Delta Airlines Schedules Departing from KDTW availible today
245 Schedules Today
Number of Delta Airlines Schedules Arriving at KDTW availible today
227 Schedules Today
Average Landing Rate at KDTW
-269 fpm
Delta Airlines Average Landing Rate at KDTW
-341 fpm
Total Fuel Purchased at KDTW by Delta Airlines
8,630.50 kgs / 19,026.80 lbs

Pilots Based at KDTW


Pilot ID
Pilot Name
Pilot Rank
No. of Flights
No. of Flying Hours
There are no pilots assigned to this hub!   Will you be the first?
Content